Tropical Cyclones
[Index]
Main Index Home Page Stock Weather Photos Extreme Storms Discussion Storm News and Storm Chasing Reports Tropical Cyclones / Hurricanes / Typhoons Weather Data and Links Wild Fires / Bushfires Weather Observation Techniques Weather Picture Catalogue Tornado Pictures and Reports Stock Video Footage and DVDs for sale
Season 1982-1983 Tropical Cyclone KEN Track Map
Season 1982-1983 Summaries: [BoM-AU] [JTWC-AU] [JTWC-SIO] [JTWC-SPAC] [JTWC-SH]
<<- Previous TC | BoM 1982-1983 Season | Next TC ->>

click for intensity scale information  Lat/long Grid: Show Hide

 Date Labels: Show Hide

Bureau of Meteorology Tropical Cyclone Data

Name: KEN
Number: 639 / 198283_04

28 Feb 1983 03:00 UTC to 06 Mar 1983 09:00 UTC

    date/time    lat    long    hPa   cat  kts
1983-02-28 03   13.1   124.9    994    1                
1983-02-28 06   13.2   124.8    992    1                
1983-02-28 09   13.2   124.8    990    1                
1983-02-28 12   13.3   124.7    988    1                
1983-02-28 15   13.3   124.7    986    1                
1983-02-28 18   13.4   124.6    984    2                
1983-02-28 21   13.4   124.6    982    2                
1983-03-01 00   13.5   124.5    980    2                
1983-03-01 03   13.8   124.4    978    2                
1983-03-01 06   14.1   124.5    977    2                
1983-03-01 09   14.2   124.5    976    2                
1983-03-01 12   14.3   124.5    975    2                
1983-03-01 15   14.4   124.5    974    2                
1983-03-01 18   14.5   124.5    973    2                
1983-03-01 21   14.6   124.5    972    2                
1983-03-02 00   14.8   124.5    970    3                
1983-03-02 03   15.0   124.5    970    3                
1983-03-02 06   15.4   124.5    970    3                
1983-03-02 09   15.7   124.5    970    3                
1983-03-02 12   15.9   124.6    970    3                
1983-03-02 15   16.1   124.6    973    2                
1983-03-02 18   16.3   124.7    976    2                
1983-03-02 21   16.3   124.8    982    2                
1983-03-03 00   16.4   125.2    988    1                
1983-03-03 03   16.5   125.5    990    1                
1983-03-03 06   16.8   125.8    991    1                
1983-03-03 09   17.1   126.0    991    1                
1983-03-03 12   17.7   126.3    992    1                
1983-03-03 15   18.0   126.7    992    1                
1983-03-03 18   18.4   126.6    992    1                
1983-03-03 21   18.7   126.6    993    1                
1983-03-04 00   18.9   126.6    994    1                
1983-03-04 03   19.4   126.5    994    1                
1983-03-04 06   19.7   126.4    994    1                
1983-03-04 09   20.0   126.4    994    1                
1983-03-04 12   20.4   126.3    994    1                
1983-03-04 15   20.7   126.2    994    1                
1983-03-04 18   21.0   126.0    995    1                
1983-03-04 21   21.2   125.8    995    1                
1983-03-05 00   21.6   125.5    995    1                
1983-03-05 03   21.9   125.3    995    1                
1983-03-05 06   22.5   124.8    995    1                
1983-03-05 09   22.8   124.4    996                     
1983-03-05 12   23.2   123.9    997                     
1983-03-05 15   24.1   124.1    998                     
1983-03-05 18   25.0   125.3    999                     
1983-03-05 21   25.4   126.1   1000                     
1983-03-06 00   25.8   126.8   1001                     
1983-03-06 03   26.3   127.2   1002                     
1983-03-06 06   26.7   127.5   1003                     
1983-03-06 09   27.0   128.9   1004                     
Winds are 10-min average.

Tropical cyclone tracks developed by Michael Bath using data from the Bureau of Meteorology and Google Maps.


[Australian Severe Weather index] [Copyright Notice] [Email Contacts] [Search This Site] [Privacy Policy]
Document: tropical_cyclone_ken.htm Updated: 30 May 2013